SBGO/GYN METAR and TAF weather

Enter ICAO airport designator
Station Type Date Time Source
SBGO METAR 2020/06/01 15:00 UTC NOAA

SBGO 011500Z 00000KT CAVOK 26/13 Q1019


Station Type Date Time Source
SBGO Decoded METAR 2020/06/01 15:00 UTC NOAA

Goiania Aeroporto , Brazil (SBGO) 16-38S 049-13W
Jun 01, 2020 - 11:00 AM EDT / 2020.06.01 1500 UTC
Wind: Calm:0
Visibility: greater than 7 mile(s):0
Temperature: 78 F (26 C)
Dew Point: 55 F (13 C)
Relative Humidity: 44%
Pressure (altimeter): 30.09 in. Hg (1019 hPa)
ob: SBGO 011500Z 00000KT CAVOK 26/13 Q1019
cycle: 15

Station Type Date Time Source
SBGO TAF 2020/06/01 12:54 UTC NOAA

TAF SBGO 011000Z 0112/0212 13006KT CAVOK TX26/0117Z TN17/0206Z
BECMG 0116/0118 18005KT
RMK PEM

Example: see airport list